臺北飛航情報區 - 掃描席(區管/近場)

METAR RCTP 212100Z 17004KT 140V220 9999 FEW020 SCT060 26/25 Q1000 NOSIG RMK A2955(C)=

站台狀態:Online
最後更新:2018-07-22 05:00:03